createdAt,value
2023-01-30T00:01:17.892Z,11.90
2023-01-30T00:03:48.035Z,13.40
2023-01-30T00:06:16.699Z,13.50
2023-01-30T00:08:44.944Z,13.23
2023-01-30T00:11:15.269Z,14.10
2023-01-30T00:13:43.838Z,13.40
2023-01-30T00:16:12.611Z,14.23
2023-01-30T00:18:41.588Z,14.63
2023-01-30T00:21:13.458Z,14.27
2023-01-30T00:23:41.787Z,13.20
2023-01-30T00:26:10.650Z,13.47
2023-01-30T00:28:40.127Z,13.70
2023-01-30T00:31:09.250Z,13.87
2023-01-30T00:33:39.414Z,12.70
2023-01-30T00:36:09.017Z,12.70
2023-01-30T00:38:38.523Z,14.07
2023-01-30T00:41:07.345Z,14.17
2023-01-30T00:43:53.224Z,13.07
2023-01-30T00:46:45.642Z,13.23
2023-01-30T00:49:14.361Z,13.13
2023-01-30T00:51:42.441Z,12.80
2023-01-30T00:54:12.410Z,12.90
2023-01-30T00:56:40.529Z,12.97
2023-01-30T00:59:08.620Z,13.53
2023-01-30T01:01:38.234Z,12.87
2023-01-30T01:04:07.060Z,13.40
2023-01-30T01:06:35.619Z,13.20
2023-01-30T01:09:04.433Z,12.20
2023-01-30T01:11:34.085Z,13.40
2023-01-30T01:14:04.215Z,13.97
2023-01-30T01:16:33.862Z,13.30
2023-01-30T01:19:02.694Z,15.23
2023-01-30T01:21:30.959Z,13.53
2023-01-30T01:24:01.675Z,13.40
2023-01-30T01:26:29.844Z,13.73
2023-01-30T01:29:01.037Z,14.60
2023-01-30T01:31:29.899Z,14.43
2023-01-30T01:33:58.076Z,15.10
2023-01-30T01:36:52.079Z,14.07
2023-01-30T01:39:15.255Z,14.07
2023-01-30T01:41:42.488Z,14.10
2023-01-30T01:44:13.919Z,13.97
2023-01-30T01:46:48.778Z,13.40
2023-01-30T01:49:23.261Z,13.07
2023-01-30T01:51:56.178Z,13.47
2023-01-30T01:54:31.210Z,13.53
2023-01-30T01:57:02.738Z,14.20
2023-01-30T01:59:36.428Z,13.97
2023-01-30T02:02:10.207Z,13.30
2023-01-30T02:05:00.644Z,13.97
2023-01-30T02:07:30.749Z,13.03
2023-01-30T02:09:59.569Z,13.17
2023-01-30T02:12:28.183Z,13.73
2023-01-30T02:14:59.515Z,12.27
2023-01-30T02:17:28.633Z,13.17
2023-01-30T02:20:04.880Z,13.37
2023-01-30T02:22:54.407Z,13.23
2023-01-30T02:25:50.425Z,13.13
2023-01-30T02:28:45.793Z,13.43
2023-01-30T02:31:29.919Z,12.13
2023-01-30T02:34:11.079Z,12.23
2023-01-30T02:36:50.799Z,12.10
2023-01-30T02:39:28.383Z,12.93
2023-01-30T02:42:04.365Z,12.77
2023-01-30T02:44:41.018Z,12.47
2023-01-30T02:47:14.740Z,11.67
2023-01-30T02:49:48.612Z,12.17
2023-01-30T02:52:18.511Z,12.77
2023-01-30T02:54:46.702Z,12.27
2023-01-30T02:57:22.093Z,12.53
2023-01-30T02:59:54.396Z,12.83
2023-01-30T03:02:34.717Z,11.90
2023-01-30T03:05:21.562Z,12.37
2023-01-30T03:07:56.463Z,13.00
2023-01-30T03:10:33.699Z,11.93
2023-01-30T03:13:10.003Z,12.70
2023-01-30T03:15:43.308Z,12.50
2023-01-30T03:18:13.559Z,12.00
2023-01-30T03:20:42.610Z,12.77
2023-01-30T03:23:11.196Z,12.60
2023-01-30T03:25:43.313Z,12.67
2023-01-30T03:28:14.498Z,12.50
2023-01-30T03:30:42.870Z,12.10
2023-01-30T03:33:12.942Z,11.20
2023-01-30T03:35:41.407Z,11.63
2023-01-30T03:38:10.138Z,10.97
2023-01-30T03:40:38.507Z,12.13
2023-01-30T03:43:07.094Z,10.97
2023-01-30T03:45:35.735Z,12.00
2023-01-30T03:48:03.890Z,9.83
2023-01-30T03:50:33.867Z,11.53
2023-01-30T03:53:02.000Z,10.83
2023-01-30T03:55:30.624Z,10.30
2023-01-30T03:57:59.422Z,10.47
2023-01-30T04:00:28.273Z,10.70
2023-01-30T04:02:57.259Z,10.73
2023-01-30T04:05:25.891Z,11.03
2023-01-30T04:07:58.198Z,10.47
2023-01-30T04:10:27.222Z,11.03
2023-01-30T04:12:55.565Z,10.50
2023-01-30T04:15:24.102Z,11.83
2023-01-30T04:17:52.176Z,11.37
2023-01-30T04:20:21.446Z,11.30
2023-01-30T04:22:49.498Z,9.97
2023-01-30T04:25:19.774Z,11.23
2023-01-30T04:27:48.159Z,10.93
2023-01-30T04:30:17.083Z,10.33
2023-01-30T04:32:45.715Z,9.97
2023-01-30T04:35:13.916Z,10.20
2023-01-30T04:37:42.516Z,12.13
2023-01-30T04:40:12.363Z,10.83
2023-01-30T04:42:41.958Z,10.77
2023-01-30T04:45:11.516Z,10.40
2023-01-30T04:47:39.612Z,10.57
2023-01-30T04:50:09.134Z,9.53
2023-01-30T04:52:38.964Z,9.63
2023-01-30T04:55:09.248Z,9.67
2023-01-30T04:57:37.962Z,9.47
2023-01-30T05:00:09.305Z,9.90
2023-01-30T05:02:37.862Z,10.17
2023-01-30T05:05:07.150Z,11.63
2023-01-30T05:07:35.771Z,11.07
2023-01-30T05:10:03.978Z,10.63
2023-01-30T05:12:32.520Z,10.30
2023-01-30T05:15:01.730Z,10.30
2023-01-30T05:17:31.705Z,9.87
2023-01-30T05:19:59.879Z,10.80
2023-01-30T05:22:28.205Z,10.63
2023-01-30T05:24:56.360Z,10.23
2023-01-30T05:27:24.492Z,10.53
2023-01-30T05:29:53.078Z,10.57
2023-01-30T05:32:22.159Z,9.33
2023-01-30T05:34:52.139Z,10.60
2023-01-30T05:37:20.559Z,10.57
2023-01-30T05:39:49.150Z,9.80
2023-01-30T05:42:17.571Z,9.57
2023-01-30T05:44:46.077Z,9.87
2023-01-30T05:47:14.823Z,10.73
2023-01-30T05:49:42.943Z,10.73
2023-01-30T05:52:12.384Z,10.53
2023-01-30T05:54:41.016Z,10.17
2023-01-30T05:57:09.626Z,9.43
2023-01-30T05:59:37.792Z,10.83
2023-01-30T06:02:06.436Z,9.87
2023-01-30T06:04:35.541Z,10.17
2023-01-30T06:07:04.123Z,9.93
2023-01-30T06:09:33.667Z,9.23
2023-01-30T06:12:01.724Z,9.60
2023-01-30T06:14:29.851Z,9.43
2023-01-30T06:16:58.505Z,8.70
2023-01-30T06:19:26.685Z,9.77
2023-01-30T06:21:55.319Z,9.47
2023-01-30T06:24:23.894Z,8.77
2023-01-30T06:26:53.433Z,8.90
2023-01-30T06:29:22.269Z,8.47
2023-01-30T06:31:50.394Z,8.70
2023-01-30T06:34:18.977Z,8.63
2023-01-30T06:36:47.620Z,8.33
2023-01-30T06:39:16.201Z,8.17
2023-01-30T06:41:44.302Z,7.43
2023-01-30T06:44:13.940Z,8.03
2023-01-30T06:46:42.070Z,8.63
2023-01-30T06:49:10.779Z,8.73
2023-01-30T06:51:39.067Z,7.90
2023-01-30T06:54:07.679Z,8.33
2023-01-30T06:56:35.732Z,7.83
2023-01-30T06:59:04.417Z,8.13
2023-01-30T07:01:34.463Z,8.50
2023-01-30T07:04:03.092Z,8.40
2023-01-30T07:06:31.254Z,8.47
2023-01-30T07:08:59.970Z,7.77
2023-01-30T07:11:28.219Z,7.40
2023-01-30T07:13:56.769Z,7.57
2023-01-30T07:16:29.824Z,8.20
2023-01-30T07:18:59.514Z,7.47
2023-01-30T07:21:28.610Z,7.43
2023-01-30T07:23:57.205Z,7.83
2023-01-30T07:26:25.482Z,7.73
2023-01-30T07:28:54.234Z,7.50
2023-01-30T07:31:22.861Z,7.73
2023-01-30T07:33:50.973Z,7.87
2023-01-30T07:36:20.447Z,7.40
2023-01-30T07:38:49.648Z,7.57
2023-01-30T07:41:17.915Z,6.93
2023-01-30T07:43:46.478Z,7.83
2023-01-30T07:46:14.634Z,7.53
2023-01-30T07:48:45.486Z,7.57
2023-01-30T07:51:14.023Z,7.43
2023-01-30T07:53:43.618Z,7.20
2023-01-30T07:56:14.729Z,7.33
2023-01-30T07:58:42.788Z,7.00
2023-01-30T08:01:11.000Z,7.40
2023-01-30T08:03:39.551Z,7.50
2023-01-30T08:06:08.094Z,6.70
2023-01-30T08:08:36.220Z,6.83
2023-01-30T08:11:06.271Z,6.20
2023-01-30T08:13:34.456Z,7.13
2023-01-30T08:16:03.517Z,6.70
2023-01-30T08:18:31.831Z,6.67
2023-01-30T08:21:00.754Z,7.13
2023-01-30T08:23:29.101Z,6.50
2023-01-30T08:25:58.067Z,6.30
2023-01-30T08:28:28.317Z,6.17
2023-01-30T08:30:57.936Z,6.77
2023-01-30T08:33:26.640Z,6.37
2023-01-30T08:35:57.383Z,6.30
2023-01-30T08:38:25.493Z,6.00
2023-01-30T08:40:54.060Z,6.40
2023-01-30T08:43:22.598Z,6.50
2023-01-30T08:45:54.977Z,7.00
2023-01-30T08:48:23.755Z,6.23
2023-01-30T08:50:53.978Z,7.40
2023-01-30T08:53:22.926Z,7.30
2023-01-30T08:55:52.408Z,6.80
2023-01-30T08:58:21.161Z,6.70
2023-01-30T09:00:50.828Z,6.90
2023-01-30T09:03:20.482Z,7.50
2023-01-30T09:05:49.213Z,7.50
2023-01-30T09:08:17.278Z,7.63
2023-01-30T09:10:45.931Z,8.47
2023-01-30T09:13:14.568Z,7.33
2023-01-30T09:15:44.289Z,7.93
2023-01-30T09:18:12.464Z,6.43
2023-01-30T09:20:42.447Z,6.30
2023-01-30T09:23:10.573Z,6.27
2023-01-30T09:25:39.239Z,7.40
2023-01-30T09:28:08.569Z,6.50
2023-01-30T09:30:37.265Z,6.70
2023-01-30T09:33:05.540Z,6.00
2023-01-30T09:35:34.115Z,6.60
2023-01-30T09:38:04.806Z,6.27
2023-01-30T09:40:34.688Z,6.50
2023-01-30T09:43:37.735Z,6.03
2023-01-30T09:46:17.917Z,6.40
2023-01-30T09:48:58.289Z,6.50
2023-01-30T09:51:43.657Z,6.17
2023-01-30T09:54:32.725Z,6.10
2023-01-30T09:57:21.904Z,5.90
2023-01-30T10:00:02.548Z,5.40
2023-01-30T10:02:42.663Z,4.93
2023-01-30T10:05:11.336Z,5.20
2023-01-30T10:07:51.587Z,5.10
2023-01-30T10:10:31.757Z,4.80
2023-01-30T10:13:07.789Z,4.83
2023-01-30T10:15:52.876Z,4.37
2023-01-30T10:18:40.897Z,4.07
2023-01-30T10:21:18.136Z,4.30
2023-01-30T10:24:00.443Z,3.93
2023-01-30T10:26:31.344Z,3.77
2023-01-30T10:29:07.980Z,4.10
2023-01-30T10:31:44.175Z,3.90
2023-01-30T10:34:18.146Z,3.33
2023-01-30T10:36:55.073Z,3.80
2023-01-30T10:39:30.471Z,3.30
2023-01-30T10:42:10.832Z,3.43
2023-01-30T10:44:41.571Z,3.00
2023-01-30T10:47:46.721Z,3.40
2023-01-30T10:50:19.169Z,3.60
2023-01-30T10:52:57.014Z,4.33
2023-01-30T10:55:37.701Z,3.23
2023-01-30T10:58:19.057Z,3.30
2023-01-30T11:00:53.949Z,3.20
2023-01-30T11:03:26.484Z,3.47
2023-01-30T11:05:58.667Z,3.30
2023-01-30T11:08:29.696Z,3.37
2023-01-30T11:10:58.867Z,3.27
2023-01-30T11:13:32.969Z,3.47
2023-01-30T11:16:06.080Z,3.33
2023-01-30T11:19:18.333Z,4.10
2023-01-30T11:21:34.923Z,4.33
2023-01-30T11:24:17.497Z,5.37
2023-01-30T11:26:48.208Z,3.93
2023-01-30T11:29:30.459Z,3.37
2023-01-30T11:32:03.736Z,3.57
2023-01-30T11:34:32.763Z,3.47
2023-01-30T11:37:15.333Z,3.53
2023-01-30T11:39:51.928Z,3.50
2023-01-30T11:42:24.830Z,4.23
2023-01-30T11:45:16.109Z,4.20
2023-01-30T11:48:02.190Z,3.60
2023-01-30T11:50:36.686Z,4.17
2023-01-30T11:53:29.083Z,4.27
2023-01-30T11:56:06.390Z,3.70
2023-01-30T11:58:38.216Z,3.90
2023-01-30T12:01:10.950Z,3.80
2023-01-30T12:03:47.210Z,3.90
2023-01-30T12:06:23.997Z,3.50
2023-01-30T12:08:55.279Z,3.80
2023-01-30T12:11:33.374Z,3.83
2023-01-30T12:14:19.989Z,3.60
2023-01-30T12:17:01.848Z,3.43
2023-01-30T12:19:40.972Z,3.23
2023-01-30T12:22:20.859Z,3.53
2023-01-30T12:24:59.136Z,3.57
2023-01-30T12:27:47.691Z,3.47
2023-01-30T12:30:26.115Z,3.63
2023-01-30T12:35:42.352Z,4.00
2023-01-30T12:38:22.936Z,5.30
2023-01-30T12:41:02.366Z,4.00
2023-01-30T12:43:50.686Z,3.60
2023-01-30T12:46:47.124Z,3.90
2023-01-30T12:49:41.305Z,3.60
2023-01-30T12:52:39.415Z,3.70
2023-01-30T12:55:22.017Z,3.93
2023-01-30T12:57:57.288Z,4.47
2023-01-30T13:00:43.780Z,4.50
2023-01-30T13:03:24.560Z,4.23
2023-01-30T13:06:04.499Z,4.80
2023-01-30T13:08:45.748Z,4.67
2023-01-30T13:11:31.471Z,11.57
2023-01-30T13:14:06.299Z,4.63
2023-01-30T13:16:42.311Z,5.43
2023-01-30T13:19:20.935Z,4.17
2023-01-30T13:22:00.332Z,3.70
2023-01-30T13:24:40.152Z,4.23
2023-01-30T13:27:16.354Z,3.70
2023-01-30T13:29:45.506Z,4.30
2023-01-30T13:32:17.657Z,3.20
2023-01-30T13:34:47.989Z,3.97
2023-01-30T13:37:19.189Z,3.60
2023-01-30T13:39:52.474Z,3.53
2023-01-30T13:42:28.765Z,3.83
2023-01-30T13:44:58.225Z,3.90
2023-01-30T13:47:47.180Z,3.67
2023-01-30T13:50:42.060Z,3.50
2023-01-30T13:53:17.471Z,3.27
2023-01-30T13:55:52.921Z,3.47
2023-01-30T13:58:44.448Z,3.70
2023-01-30T14:01:13.547Z,4.27
2023-01-30T14:03:42.640Z,4.40
2023-01-30T14:06:35.468Z,4.10
2023-01-30T14:09:19.754Z,4.33
2023-01-30T14:11:59.516Z,4.73
2023-01-30T14:14:33.453Z,5.00
2023-01-30T14:17:13.892Z,5.10
2023-01-30T14:19:45.464Z,6.00
2023-01-30T14:22:29.987Z,5.57
2023-01-30T14:25:44.022Z,4.87
2023-01-30T14:28:49.396Z,4.67
2023-01-30T14:31:48.808Z,4.40
2023-01-30T14:34:51.127Z,4.80
2023-01-30T14:37:57.205Z,4.80
2023-01-30T14:40:41.476Z,4.00
2023-01-30T14:43:38.559Z,4.57
2023-01-30T14:46:13.376Z,4.67
2023-01-30T14:48:45.399Z,5.00
2023-01-30T14:51:22.524Z,4.53
2023-01-30T14:53:58.953Z,4.93
2023-01-30T14:56:46.041Z,5.10
2023-01-30T14:59:27.047Z,4.13
2023-01-30T15:02:08.313Z,4.60
2023-01-30T15:04:45.630Z,4.13
2023-01-30T15:07:18.500Z,4.30
2023-01-30T15:09:54.391Z,4.27
2023-01-30T15:13:14.121Z,3.97
2023-01-30T15:15:52.760Z,4.80
2023-01-30T15:18:36.553Z,3.50
2023-01-30T15:21:32.680Z,5.07
2023-01-30T15:24:11.932Z,4.60
2023-01-30T15:26:52.885Z,5.17
2023-01-30T15:29:54.296Z,4.47
2023-01-30T15:32:24.806Z,6.30
2023-01-30T15:34:56.855Z,5.43
2023-01-30T15:37:36.330Z,6.30
2023-01-30T15:40:29.409Z,5.47
2023-01-30T15:43:15.559Z,5.67
2023-01-30T15:45:54.605Z,5.20
2023-01-30T15:48:39.645Z,6.57
2023-01-30T15:51:14.790Z,4.70
2023-01-30T15:53:46.788Z,5.77
2023-01-30T15:56:20.906Z,5.47
2023-01-30T15:58:49.099Z,5.33
2023-01-30T16:01:22.540Z,5.17
2023-01-30T16:03:53.866Z,5.73
2023-01-30T16:06:30.490Z,4.97
2023-01-30T16:09:02.001Z,5.60
2023-01-30T16:11:41.606Z,5.03
2023-01-30T16:14:14.735Z,4.63
2023-01-30T16:16:47.160Z,5.20
2023-01-30T16:19:26.847Z,4.30
2023-01-30T16:21:58.415Z,4.40
2023-01-30T16:24:29.392Z,4.67
2023-01-30T16:29:52.819Z,4.70
2023-01-30T16:32:26.633Z,4.83
2023-01-30T16:35:17.284Z,6.03
2023-01-30T16:37:45.729Z,4.90
2023-01-30T16:40:16.601Z,4.77
2023-01-30T16:42:57.644Z,4.43
2023-01-30T16:46:02.809Z,5.33
2023-01-30T16:48:34.452Z,4.70
2023-01-30T16:51:20.962Z,4.20
2023-01-30T16:54:01.089Z,5.17
2023-01-30T16:56:30.510Z,4.43
2023-01-30T16:59:01.132Z,4.63
2023-01-30T17:01:38.275Z,5.63
2023-01-30T17:04:09.292Z,4.67
2023-01-30T17:06:43.267Z,4.93
2023-01-30T17:09:39.777Z,4.50
2023-01-30T17:12:50.110Z,4.87
2023-01-30T17:15:33.627Z,4.53
2023-01-30T17:18:02.560Z,4.13
2023-01-30T17:20:44.066Z,4.80
2023-01-30T17:23:18.931Z,4.27
2023-01-30T17:25:49.817Z,3.93
2023-01-30T17:28:22.145Z,4.57
2023-01-30T17:30:50.951Z,4.00
2023-01-30T17:33:19.040Z,4.03
2023-01-30T17:35:47.501Z,5.50
2023-01-30T17:38:17.032Z,4.10
2023-01-30T17:40:45.467Z,4.87
2023-01-30T17:43:13.566Z,5.87
2023-01-30T17:45:42.468Z,5.13
2023-01-30T17:48:13.101Z,5.87
2023-01-30T17:50:41.777Z,4.43
2023-01-30T17:53:09.854Z,4.17
2023-01-30T17:55:40.998Z,4.53
2023-01-30T17:58:13.061Z,5.60
2023-01-30T18:00:41.650Z,4.60
2023-01-30T18:03:09.735Z,3.83
2023-01-30T18:05:38.415Z,4.03
2023-01-30T18:08:06.831Z,3.73
2023-01-30T18:10:35.272Z,4.63
2023-01-30T18:13:05.892Z,3.43
2023-01-30T18:15:34.558Z,4.43
2023-01-30T18:18:02.792Z,4.07
2023-01-30T18:20:31.767Z,3.40
2023-01-30T18:23:00.319Z,3.57
2023-01-30T18:25:28.461Z,3.60
2023-01-30T18:27:57.252Z,4.43
2023-01-30T18:30:26.725Z,4.50
2023-01-30T18:32:55.602Z,5.50
2023-01-30T18:35:23.803Z,5.90
2023-01-30T18:37:52.369Z,3.93
2023-01-30T18:40:22.067Z,4.10
2023-01-30T18:42:50.722Z,3.87
2023-01-30T18:45:18.913Z,4.23
2023-01-30T18:47:49.395Z,5.83
2023-01-30T18:50:18.703Z,4.63
2023-01-30T18:52:48.413Z,6.07
2023-01-30T18:55:16.807Z,4.67
2023-01-30T18:57:45.344Z,6.60
2023-01-30T19:00:16.487Z,4.03
2023-01-30T19:02:46.327Z,6.00
2023-01-30T19:05:15.874Z,5.53
2023-01-30T19:07:45.795Z,5.43
2023-01-30T19:10:17.328Z,6.30
2023-01-30T19:13:03.949Z,7.77
2023-01-30T19:15:32.025Z,4.63
2023-01-30T19:18:00.580Z,6.13
2023-01-30T19:20:31.136Z,6.17
2023-01-30T19:23:00.340Z,5.43
2023-01-30T19:25:28.359Z,6.27
2023-01-30T19:27:56.949Z,6.47
2023-01-30T19:30:25.002Z,5.30
2023-01-30T19:32:54.330Z,6.57
2023-01-30T19:35:22.572Z,7.50
2023-01-30T19:37:55.090Z,7.23
2023-01-30T19:40:23.672Z,7.17
2023-01-30T19:42:54.753Z,7.63
2023-01-30T19:45:25.426Z,6.27
2023-01-30T19:47:54.601Z,4.57
2023-01-30T19:50:22.692Z,5.03
2023-01-30T19:52:55.870Z,6.43
2023-01-30T19:55:25.021Z,5.57
2023-01-30T19:57:53.654Z,7.50
2023-01-30T20:00:22.454Z,4.67
2023-01-30T20:02:52.804Z,5.53
2023-01-30T20:05:21.807Z,6.43
2023-01-30T20:07:50.136Z,9.40
2023-01-30T20:10:21.524Z,6.47
2023-01-30T20:12:49.784Z,6.37
2023-01-30T20:15:18.430Z,5.70
2023-01-30T20:17:46.518Z,6.47
2023-01-30T20:20:14.755Z,5.77
2023-01-30T20:22:42.853Z,6.93
2023-01-30T20:25:11.653Z,9.37
2023-01-30T20:27:41.386Z,6.43
2023-01-30T20:30:11.743Z,5.07
2023-01-30T20:32:40.468Z,9.17
2023-01-30T20:35:09.224Z,8.77
2023-01-30T20:37:37.343Z,6.60
2023-01-30T20:40:06.402Z,6.63
2023-01-30T20:42:34.467Z,8.00
2023-01-30T20:45:04.574Z,5.13
2023-01-30T20:47:32.775Z,4.90
2023-01-30T20:50:01.394Z,5.90
2023-01-30T20:52:29.603Z,6.40
2023-01-30T20:54:57.715Z,5.93
2023-01-30T20:57:27.055Z,4.70
2023-01-30T20:59:55.195Z,5.40
2023-01-30T21:02:25.131Z,3.90
2023-01-30T21:04:53.271Z,7.80
2023-01-30T21:07:21.375Z,14.00
2023-01-30T21:09:49.464Z,6.67
2023-01-30T21:12:18.013Z,6.80
2023-01-30T21:14:46.303Z,6.00
2023-01-30T21:17:14.404Z,7.73
2023-01-30T21:19:43.922Z,6.53
2023-01-30T21:22:12.443Z,6.23
2023-01-30T21:24:41.037Z,7.77
2023-01-30T21:27:09.114Z,6.50
2023-01-30T21:29:37.970Z,5.73
2023-01-30T21:32:06.236Z,6.50
2023-01-30T21:34:35.864Z,6.10
2023-01-30T21:37:23.412Z,6.73
2023-01-30T21:40:09.187Z,5.90
2023-01-30T21:42:54.634Z,10.40
2023-01-30T21:45:23.663Z,6.03
2023-01-30T21:47:54.123Z,6.23
2023-01-30T21:50:22.719Z,6.63
2023-01-30T21:52:52.901Z,8.50
2023-01-30T21:55:21.897Z,7.87
2023-01-30T21:57:51.619Z,7.07
2023-01-30T22:00:20.101Z,6.87
2023-01-30T22:02:52.515Z,6.70
2023-01-30T22:05:20.948Z,7.30
2023-01-30T22:07:49.663Z,5.50
2023-01-30T22:10:19.392Z,6.33
2023-01-30T22:12:48.731Z,5.20
2023-01-30T22:15:17.462Z,7.37
2023-01-30T22:17:46.743Z,6.70
2023-01-30T22:20:15.858Z,6.93
2023-01-30T22:22:44.009Z,7.37
2023-01-30T22:25:12.074Z,8.90
2023-01-30T22:27:41.997Z,7.10
2023-01-30T22:30:11.520Z,6.53
2023-01-30T22:32:40.109Z,6.10
2023-01-30T22:35:09.264Z,8.20
2023-01-30T22:37:38.388Z,9.40
2023-01-30T22:40:07.955Z,8.60
2023-01-30T22:42:36.065Z,7.67
2023-01-30T22:45:06.367Z,12.50
2023-01-30T22:47:35.044Z,8.87
2023-01-30T22:50:04.712Z,7.53
2023-01-30T22:52:32.842Z,6.33
2023-01-30T22:55:02.976Z,6.40
2023-01-30T22:57:31.106Z,8.27
2023-01-30T22:59:59.721Z,6.07
2023-01-30T23:02:29.746Z,7.60
2023-01-30T23:04:58.537Z,6.57
2023-01-30T23:07:27.146Z,8.60
2023-01-30T23:09:55.244Z,7.30
2023-01-30T23:12:55.907Z,7.60
2023-01-30T23:15:24.011Z,7.03
2023-01-30T23:18:11.148Z,7.60
2023-01-30T23:20:40.261Z,8.70
2023-01-30T23:23:08.870Z,8.47
2023-01-30T23:25:41.126Z,5.00
2023-01-30T23:28:09.852Z,5.37
2023-01-30T23:30:39.117Z,8.27
2023-01-30T23:33:08.691Z,6.93
2023-01-30T23:35:37.782Z,5.07
2023-01-30T23:38:19.621Z,8.53
2023-01-30T23:40:48.823Z,10.07
2023-01-30T23:43:17.788Z,5.50
2023-01-30T23:45:45.944Z,8.40
2023-01-30T23:48:16.026Z,7.40
2023-01-30T23:50:44.233Z,7.60
2023-01-30T23:53:12.476Z,6.90
2023-01-30T23:55:41.904Z,11.50
2023-01-30T23:58:09.984Z,9.90
